Time;durP1;ratioP1;P1;durP2;ratioP2;P2;SDS_P1;SDS_P2;PMS_P1;PMS_P2;Temp;Humidity;BMP_temperature;BMP_pressure;BME280_temperature;BME280_humidity;BME280_pressure;Samples;Min_cycle;Max_cycle;Signal;HPM_P1;HPM_P2
2021/04/18 00:02:03;;;;;;;65.47;27.80;;;;;;;5.21;81.69;98756.94;5008447;28;20022;-77
2021/04/18 00:04:28;;;;;;;55.30;23.48;;;;;;;5.23;81.48;98764.84;5010113;28;20026;-77
2021/04/18 00:06:53;;;;;;;74.63;29.23;;;;;;;5.24;80.91;98761.03;5009845;28;20541;-77
2021/04/18 00:09:19;;;;;;;64.38;25.92;;;;;;;5.27;80.88;98757.00;5009531;28;20086;-77
2021/04/18 00:11:45;;;;;;;59.70;25.13;;;;;;;5.27;80.76;98760.53;5009647;28;20018;-76
2021/04/18 00:14:11;;;;;;;68.30;29.63;;;;;;;5.28;80.85;98759.47;4992511;28;20060;-77
2021/04/18 00:16:36;;;;;;;59.80;25.25;;;;;;;5.30;81.40;98751.88;5006112;28;20061;-77
2021/04/18 00:19:03;;;;;;;58.30;25.52;;;;;;;5.32;81.49;98760.59;5009742;28;20018;-77
2021/04/18 00:21:28;;;;;;;49.55;20.90;;;;;;;5.31;80.77;98758.97;5009507;28;20037;-77
2021/04/18 00:23:54;;;;;;;54.92;24.25;;;;;;;5.26;80.61;98758.91;5009757;28;20028;-76
2021/04/18 00:26:19;;;;;;;56.00;25.73;;;;;;;5.24;81.12;98758.31;5009761;28;20389;-78
2021/04/18 00:28:45;;;;;;;48.35;21.02;;;;;;;5.24;80.92;98760.25;5009814;28;20030;-77
2021/04/18 00:31:11;;;;;;;46.63;20.45;;;;;;;5.24;80.59;98750.16;5009770;28;20105;-78
2021/04/18 00:33:36;;;;;;;49.92;21.77;;;;;;;5.22;80.61;98753.16;5009593;28;20079;-77
2021/04/18 00:36:02;;;;;;;48.70;21.45;;;;;;;5.23;81.01;98751.25;5009520;28;20026;-77
2021/04/18 00:38:27;;;;;;;49.97;21.52;;;;;;;5.22;81.10;98749.59;5009328;28;20075;-77
2021/04/18 00:40:52;;;;;;;56.40;25.98;;;;;;;5.23;80.96;98751.25;5009545;28;20045;-78
2021/04/18 00:43:18;;;;;;;52.53;23.17;;;;;;;5.23;80.67;98745.81;5010441;28;20450;-78
2021/04/18 00:45:43;;;;;;;53.35;23.92;;;;;;;5.25;81.01;98754.53;5013473;28;20104;-76
2021/04/18 00:48:09;;;;;;;57.25;24.38;;;;;;;5.23;80.80;98748.53;4990335;28;20112;-77
2021/04/18 00:50:36;;;;;;;55.35;24.08;;;;;;;5.22;81.07;98750.44;5007279;28;20038;-76
2021/04/18 00:53:07;;;;;;;54.00;25.25;;;;;;;5.24;81.09;98746.66;5007704;28;20037;-77
2021/04/18 00:55:36;;;;;;;52.80;23.73;;;;;;;5.25;80.61;98734.69;5009239;28;20026;-78
2021/04/18 00:58:03;;;;;;;55.50;22.65;;;;;;;5.24;80.61;98733.84;5020135;28;20049;-78
2021/04/18 01:00:28;;;;;;;54.15;22.15;;;;;;;5.24;80.86;98736.56;5013318;28;20051;-79
2021/04/18 01:02:54;;;;;;;51.80;20.67;;;;;;;5.28;80.81;98739.63;5023089;28;20113;-77
2021/04/18 01:05:20;;;;;;;52.17;21.52;;;;;;;5.32;81.19;98732.56;5009051;28;20060;-77
2021/04/18 01:07:46;;;;;;;64.60;24.70;;;;;;;5.33;80.90;98736.94;5010948;28;20539;-76
2021/04/18 01:10:13;;;;;;;80.05;28.55;;;;;;;5.30;80.40;98735.56;4991479;28;20022;-77
2021/04/18 01:12:39;;;;;;;49.95;20.45;;;;;;;5.26;80.32;98733.63;5008760;28;20243;-77
2021/04/18 01:15:07;;;;;;;45.70;18.67;;;;;;;5.18;80.57;98722.09;5008525;28;20538;-77
2021/04/18 01:17:32;;;;;;;50.25;21.70;;;;;;;5.16;80.43;98726.13;5008773;28;20393;-76
2021/04/18 01:19:58;;;;;;;62.25;22.23;;;;;;;5.15;80.50;98728.06;5008785;28;20029;-77
2021/04/18 01:22:23;;;;;;;54.70;20.40;;;;;;;5.16;80.78;98721.53;5008516;28;20095;-76
2021/04/18 01:24:48;;;;;;;48.35;20.20;;;;;;;5.21;81.04;98723.47;5008820;28;20030;-76
2021/04/18 01:27:16;;;;;;;45.53;19.10;;;;;;;5.27;80.46;98727.09;5008648;28;20049;-77
2021/04/18 01:29:42;;;;;;;42.47;17.73;;;;;;;5.30;80.66;98721.97;5008554;28;20026;-77
2021/04/18 01:32:07;;;;;;;48.90;21.30;;;;;;;5.27;81.05;98719.75;5008209;28;20026;-77
2021/04/18 01:34:33;;;;;;;51.42;21.80;;;;;;;5.25;80.22;98716.47;5008536;28;20129;-77
2021/04/18 01:36:59;;;;;;;54.20;24.23;;;;;;;5.27;80.68;98716.22;5008468;28;20056;-77
2021/04/18 01:39:25;;;;;;;49.83;20.25;;;;;;;5.24;80.34;98722.97;5033301;28;20031;-77
2021/04/18 01:41:50;;;;;;;50.83;22.48;;;;;;;5.20;80.28;98710.97;5018657;28;20432;-77
2021/04/18 01:44:16;;;;;;;53.97;22.73;;;;;;;5.18;80.47;98719.38;5008236;28;20026;-76
2021/04/18 01:46:44;;;;;;;49.13;21.77;;;;;;;5.22;81.04;98720.53;5008143;28;20079;-77
2021/04/18 01:49:10;;;;;;;48.83;21.02;;;;;;;5.20;80.85;98717.25;5007861;28;20431;-77
2021/04/18 01:51:36;;;;;;;50.92;19.88;;;;;;;5.22;80.82;98714.25;5008235;28;20030;-77
2021/04/18 01:54:03;;;;;;;49.72;20.02;;;;;;;5.14;80.44;98720.97;5004303;28;20052;-76
2021/04/18 01:56:28;;;;;;;47.38;20.45;;;;;;;5.09;80.49;98714.66;5009690;28;20112;-77
2021/04/18 01:58:54;;;;;;;44.65;18.95;;;;;;;5.06;80.20;98714.09;5008197;28;20511;-76
2021/04/18 02:01:20;;;;;;;37.47;16.58;;;;;;;5.02;80.38;98720.28;5007898;28;20057;-77
2021/04/18 02:03:45;;;;;;;39.38;16.95;;;;;;;4.94;80.65;98713.38;5008133;28;20079;-77
2021/04/18 02:06:11;;;;;;;40.45;16.70;;;;;;;4.93;81.02;98711.75;5008091;28;20456;-77
2021/04/18 02:08:36;;;;;;;36.80;16.67;;;;;;;4.95;80.76;98711.47;4992686;28;20018;-76
2021/04/18 02:11:02;;;;;;;45.28;17.52;;;;;;;4.98;81.02;98708.25;5011294;28;20045;-77
2021/04/18 02:13:27;;;;;;;39.58;17.40;;;;;;;5.02;80.88;98712.13;5012035;28;20083;-77
2021/04/18 02:15:53;;;;;;;41.33;17.45;;;;;;;5.09;80.99;98706.50;5011970;28;20028;-77
2021/04/18 02:18:18;;;;;;;48.75;18.85;;;;;;;5.12;80.54;98704.09;5011796;28;20109;-77
2021/04/18 02:20:43;;;;;;;51.03;20.27;;;;;;;5.19;81.17;98704.72;5011870;28;20061;-77
2021/04/18 02:23:09;;;;;;;48.63;20.75;;;;;;;5.18;80.50;98694.91;5011544;28;20014;-77
2021/04/18 02:25:34;;;;;;;52.08;21.30;;;;;;;5.22;81.07;98703.38;5011293;28;20432;-77
2021/04/18 02:28:00;;;;;;;42.65;16.67;;;;;;;5.21;80.84;98699.84;5011164;28;20047;-76
2021/04/18 02:30:25;;;;;;;43.03;18.83;;;;;;;5.23;80.63;98707.72;5011585;28;20125;-76
2021/04/18 02:32:51;;;;;;;43.47;17.92;;;;;;;5.26;80.49;98709.94;5011444;28;20063;-76
2021/04/18 02:35:17;;;;;;;49.08;21.10;;;;;;;5.29;80.88;98706.72;5011215;28;20026;-77
2021/04/18 02:37:45;;;;;;;48.20;20.65;;;;;;;5.29;80.24;98698.56;5011289;28;20014;-76
2021/04/18 02:40:11;;;;;;;50.42;20.10;;;;;;;5.27;80.73;98698.00;5010807;28;20032;-76
2021/04/18 02:42:38;;;;;;;39.85;16.58;;;;;;;5.23;80.14;98699.56;5011096;28;20104;-76
2021/04/18 02:45:04;;;;;;;42.10;18.35;;;;;;;5.22;80.68;98703.38;5011168;28;20059;-77
2021/04/18 02:47:29;;;;;;;38.72;17.23;;;;;;;5.20;80.24;98694.66;5010751;28;20045;-76
2021/04/18 02:49:55;;;;;;;39.08;16.83;;;;;;;5.20;80.64;98700.09;5011053;28;20709;-76
2021/04/18 02:52:20;;;;;;;43.30;18.02;;;;;;;5.19;81.28;98693.84;5011021;28;20054;-78
2021/04/18 02:54:45;;;;;;;36.63;16.23;;;;;;;5.20;80.14;98692.75;5010986;28;20038;-78
2021/04/18 02:57:11;;;;;;;44.83;18.80;;;;;;;5.21;80.34;98699.84;5012150;28;20117;-78
2021/04/18 02:59:36;;;;;;;44.88;17.90;;;;;;;5.20;80.04;98692.75;5010907;28;20026;-78
2021/04/18 03:02:02;;;;;;;43.53;18.90;;;;;;;5.19;80.14;98688.41;5010849;28;20478;-78
2021/04/18 03:04:28;;;;;;;46.92;18.27;;;;;;;5.22;80.24;98692.50;5010730;28;20034;-77
2021/04/18 03:06:53;;;;;;;42.92;17.98;;;;;;;5.20;80.06;98692.75;5010467;28;20406;-78
2021/04/18 03:09:18;;;;;;;46.10;19.08;;;;;;;5.18;80.23;98684.03;5010245;28;20485;-78
2021/04/18 03:11:44;;;;;;;46.83;18.40;;;;;;;5.19;80.16;98680.25;5010668;28;20033;-78
2021/04/18 03:14:09;;;;;;;42.50;18.95;;;;;;;5.26;80.70;98685.47;5010676;28;20079;-79
2021/04/18 03:16:34;;;;;;;46.20;19.00;;;;;;;5.32;80.90;98681.72;5010636;28;20041;-78
2021/04/18 03:19:00;;;;;;;51.67;20.40;;;;;;;5.31;80.67;98680.09;5010357;28;20018;-77
2021/04/18 03:21:25;;;;;;;51.70;19.17;;;;;;;5.28;80.66;98675.16;5010051;28;20470;-78
2021/04/18 03:23:50;;;;;;;50.92;18.92;;;;;;;5.29;80.38;98671.38;5010251;28;20492;-79
2021/04/18 03:26:16;;;;;;;49.83;21.15;;;;;;;5.31;80.23;98674.66;5010450;28;20018;-80
2021/04/18 03:28:41;;;;;;;51.42;20.35;;;;;;;5.30;80.85;98678.44;5010582;28;20026;-77
2021/04/18 03:31:07;;;;;;;50.60;19.75;;;;;;;5.34;80.59;98673.31;5010286;28;20061;-76
2021/04/18 03:33:32;;;;;;;53.58;22.50;;;;;;;5.38;80.17;98676.34;5010410;28;20095;-76
2021/04/18 03:35:58;;;;;;;57.30;21.58;;;;;;;5.35;80.18;98678.50;5010034;28;20022;-79
2021/04/18 03:38:23;;;;;;;58.80;22.17;;;;;;;5.39;80.68;98669.84;5006346;28;20041;-79
2021/04/18 03:40:49;;;;;;;52.80;21.88;;;;;;;5.44;80.25;98676.13;5031683;28;20099;-76
2021/04/18 03:43:14;;;;;;;55.35;21.55;;;;;;;5.46;80.76;98676.69;5009701;28;20022;-79
2021/04/18 03:45:39;;;;;;;56.17;22.40;;;;;;;5.53;80.23;98671.03;5010055;28;20029;-79
2021/04/18 03:48:05;;;;;;;52.38;20.92;;;;;;;5.55;80.33;98666.16;5010230;28;20029;-79
2021/04/18 03:50:31;;;;;;;58.33;22.42;;;;;;;5.46;80.01;98665.00;5009714;28;20103;-79
2021/04/18 03:52:57;;;;;;;64.03;24.33;;;;;;;5.36;79.81;98669.25;5010329;28;20026;-77
2021/04/18 03:55:23;;;;;;;65.53;23.73;;;;;;;5.32;80.04;98676.28;5010010;28;20145;-79
2021/04/18 03:57:50;;;;;;;75.50;28.10;;;;;;;5.31;80.48;98671.09;5008600;28;20100;-79
2021/04/18 04:00:15;;;;;;;86.55;33.45;;;;;;;5.26;80.33;98671.88;5009564;28;20105;-79
2021/04/18 04:02:41;;;;;;;62.17;24.88;;;;;;;5.17;79.79;98671.53;5009801;28;20105;-80
2021/04/18 04:05:07;;;;;;;57.83;23.70;;;;;;;5.12;79.71;98673.34;5010010;28;20047;-79
2021/04/18 04:07:32;;;;;;;61.47;23.92;;;;;;;5.15;80.18;98670.13;5009659;28;20468;-79
2021/04/18 04:09:58;;;;;;;54.63;23.02;;;;;;;5.22;80.36;98670.75;4992249;28;20121;-79
2021/04/18 04:12:24;;;;;;;61.63;23.98;;;;;;;5.25;80.55;98666.72;5009842;28;20026;-79
2021/04/18 04:14:51;;;;;;;71.50;29.65;;;;;;;5.22;80.90;98668.84;5009806;28;20573;-79
2021/04/18 04:17:17;;;;;;;64.82;24.85;;;;;;;5.24;80.46;98670.50;5009696;28;20018;-79
2021/04/18 04:19:42;;;;;;;75.43;25.80;;;;;;;5.15;80.50;98667.41;5009676;28;20036;-79
2021/04/18 04:22:08;;;;;;;48.00;19.73;;;;;;;5.14;80.61;98661.16;5009302;28;20025;-79
2021/04/18 04:24:33;;;;;;;47.50;19.45;;;;;;;5.16;79.92;98666.31;5009524;28;20037;-79
2021/04/18 04:26:58;;;;;;;51.45;20.08;;;;;;;5.18;80.21;98664.16;5009625;28;20022;-79
2021/04/18 04:29:23;;;;;;;55.25;22.30;;;;;;;5.21;80.23;98664.50;5009316;28;20027;-79
2021/04/18 04:31:49;;;;;;;66.07;24.58;;;;;;;5.26;80.21;98663.72;5008701;28;20026;-76
2021/04/18 04:34:14;;;;;;;54.55;20.67;;;;;;;5.29;80.35;98663.22;5009454;28;20047;-80
2021/04/18 04:36:40;;;;;;;49.30;19.65;;;;;;;5.32;80.70;98661.84;5009703;28;20469;-79
2021/04/18 04:39:06;;;;;;;50.80;20.58;;;;;;;5.36;80.77;98671.16;5009504;28;20029;-79
2021/04/18 04:41:32;;;;;;;45.28;19.10;;;;;;;5.38;80.43;98665.47;5026299;28;20059;-78
2021/04/18 04:43:57;;;;;;;48.83;19.55;;;;;;;5.42;80.42;98670.13;5027707;28;20036;-79
2021/04/18 04:46:23;;;;;;;49.35;19.95;;;;;;;5.42;80.83;98677.47;5008975;28;20038;-76
2021/04/18 04:48:48;;;;;;;47.45;18.85;;;;;;;5.43;80.27;98676.41;5009587;28;20053;-77
2021/04/18 04:51:13;;;;;;;43.90;18.83;;;;;;;5.41;80.66;98673.13;5009119;28;20091;-77
2021/04/18 04:53:39;;;;;;;47.80;19.40;;;;;;;5.39;80.32;98673.34;5009388;28;20025;-78
2021/04/18 04:56:04;;;;;;;50.03;20.23;;;;;;;5.40;80.08;98674.19;5008857;28;20109;-77
2021/04/18 04:58:30;;;;;;;48.72;21.30;;;;;;;5.39;79.88;98667.13;4992604;28;20079;-77
2021/04/18 05:00:55;;;;;;;48.00;19.88;;;;;;;5.36;80.60;98658.38;5010482;28;20033;-77
2021/04/18 05:03:25;;;;;;;59.83;26.42;;;;;;;5.37;80.13;98667.34;5010875;28;20029;-77
2021/04/18 05:05:51;;;;;;;57.70;24.35;;;;;;;5.38;80.35;98663.56;5010379;28;20033;-77
2021/04/18 05:08:16;;;;;;;55.72;22.80;;;;;;;5.40;80.03;98666.03;5010531;28;20086;-77
2021/04/18 05:10:42;;;;;;;59.35;24.63;;;;;;;5.37;80.12;98661.91;5010074;28;20424;-77
2021/04/18 05:13:07;;;;;;;61.38;28.55;;;;;;;5.34;80.47;98665.97;5010439;28;20474;-77
2021/04/18 05:15:33;;;;;;;87.72;39.20;;;;;;;5.36;80.15;98671.16;5010413;28;20057;-77
2021/04/18 05:17:58;;;;;;;92.97;38.67;;;;;;;5.35;80.53;98667.63;5010281;28;20026;-77
2021/04/18 05:20:23;;;;;;;103.10;43.28;;;;;;;5.34;80.53;98670.59;5010074;28;20029;-77
2021/04/18 05:22:49;;;;;;;80.35;32.75;;;;;;;5.35;79.96;98670.34;5010217;28;20030;-78
2021/04/18 05:25:15;;;;;;;111.07;42.17;;;;;;;5.36;80.17;98676.59;4992372;28;20033;-77
2021/04/18 05:27:42;;;;;;;111.35;43.42;;;;;;;5.39;80.46;98678.81;5010142;28;20113;-77
2021/04/18 05:30:09;;;;;;;137.85;51.97;;;;;;;5.42;80.41;98677.47;5009765;28;20057;-78
2021/04/18 05:32:36;;;;;;;103.75;38.42;;;;;;;5.41;80.19;98684.00;5010132;28;20496;-77
2021/04/18 05:35:03;;;;;;;104.30;35.58;;;;;;;5.42;80.44;98685.63;5020548;28;20040;-77
2021/04/18 05:37:28;;;;;;;97.70;37.70;;;;;;;5.44;80.89;98689.72;5010048;28;20504;-77
2021/04/18 05:39:54;;;;;;;78.50;32.38;;;;;;;5.42;80.56;98685.63;5009974;28;20030;-78
2021/04/18 05:42:19;;;;;;;77.25;27.80;;;;;;;5.42;80.16;98691.09;5010072;28;20473;-77
2021/04/18 05:44:45;;;;;;;71.00;27.45;;;;;;;5.40;80.39;98685.06;5009865;28;20029;-78
2021/04/18 05:47:10;;;;;;;73.50;26.95;;;;;;;5.40;80.24;98683.16;5009292;28;20034;-78
2021/04/18 05:49:35;;;;;;;73.00;28.27;;;;;;;5.41;80.16;98686.72;5009769;28;20101;-77
2021/04/18 05:52:01;;;;;;;68.88;26.45;;;;;;;5.44;80.89;98687.00;5009871;28;20120;-78
2021/04/18 05:54:26;;;;;;;63.20;22.70;;;;;;;5.43;80.82;98685.38;5009502;28;20105;-77
2021/04/18 05:56:51;;;;;;;65.45;24.65;;;;;;;5.40;80.21;98688.59;5009875;28;20095;-77
2021/04/18 05:59:17;;;;;;;68.75;24.13;;;;;;;5.42;80.57;98693.81;5009819;28;20026;-77
2021/04/18 06:01:43;;;;;;;63.47;23.50;;;;;;;5.47;80.80;98691.13;5008887;28;20022;-78
2021/04/18 06:04:08;;;;;;;65.53;24.48;;;;;;;5.48;80.15;98687.34;5040091;28;20020;-77
2021/04/18 06:06:34;;;;;;;53.42;20.13;;;;;;;5.45;80.77;98690.56;5112594;28;20036;-78
2021/04/18 06:08:59;;;;;;;56.33;21.40;;;;;;;5.42;80.57;98697.31;5112960;28;20028;-78
2021/04/18 06:11:25;;;;;;;53.83;20.80;;;;;;;5.46;80.78;98695.75;5087111;28;20038;-78
2021/04/18 06:13:50;;;;;;;56.33;21.85;;;;;;;5.49;80.54;98702.59;5112915;28;20415;-78
2021/04/18 06:16:17;;;;;;;53.15;20.88;;;;;;;5.52;80.68;98696.59;5036991;28;20042;-78
2021/04/18 06:18:42;;;;;;;55.30;20.45;;;;;;;5.57;80.82;98702.09;5019232;28;20022;-78
2021/04/18 06:21:07;;;;;;;55.50;20.00;;;;;;;5.61;80.28;98697.78;5112473;28;20020;-78
2021/04/18 06:23:33;;;;;;;51.90;22.15;;;;;;;5.58;80.25;98689.34;5112266;28;20028;-79
2021/04/18 06:25:59;;;;;;;48.40;18.75;;;;;;;5.54;80.03;98697.16;5112340;28;20525;-78
2021/04/18 06:28:25;;;;;;;49.08;19.73;;;;;;;5.52;80.74;98696.59;5046358;28;20109;-79
2021/04/18 06:30:51;;;;;;;50.30;20.70;;;;;;;5.59;80.43;98699.94;5008706;28;20674;-78
2021/04/18 06:33:17;;;;;;;44.90;18.80;;;;;;;5.65;80.40;98698.91;5008670;28;20030;-78
2021/04/18 06:35:43;;;;;;;44.13;18.25;;;;;;;5.71;80.55;98704.41;5009383;28;20482;-78
2021/04/18 06:38:09;;;;;;;47.28;17.63;;;;;;;5.76;80.47;98704.47;5014184;28;20034;-78
2021/04/18 06:40:35;;;;;;;50.78;20.13;;;;;;;5.76;80.71;98701.72;5009166;28;20478;-79
2021/04/18 06:43:03;;;;;;;47.22;19.55;;;;;;;5.73;80.29;98699.53;5028408;28;20106;-79
2021/04/18 06:45:28;;;;;;;52.88;21.88;;;;;;;5.75;80.90;98697.38;5065226;28;20087;-79
2021/04/18 06:47:54;;;;;;;54.58;21.25;;;;;;;5.82;80.52;98698.78;5010570;28;20450;-78
2021/04/18 06:50:20;;;;;;;58.13;22.77;;;;;;;5.90;80.62;98708.41;5011253;28;20073;-78
2021/04/18 06:52:45;;;;;;;55.80;22.08;;;;;;;5.97;80.66;98711.72;5106668;28;20460;-79
2021/04/18 06:55:12;;;;;;;53.78;22.52;;;;;;;6.08;80.83;98709.09;5115092;28;20073;-78
2021/04/18 06:57:38;;;;;;;53.35;23.05;;;;;;;6.20;80.55;98706.19;5012986;28;20041;-79
2021/04/18 07:00:09;;;;;;;61.47;26.00;;;;;;;6.27;80.83;98703.25;5012457;28;20026;-78
2021/04/18 07:02:35;;;;;;;55.63;23.35;;;;;;;6.30;80.34;98705.47;5104973;28;20488;-78
2021/04/18 07:05:05;;;;;;;62.92;27.27;;;;;;;6.29;80.14;98701.91;5049734;28;20091;-78
2021/04/18 07:07:41;;;;;;;63.15;26.80;;;;;;;6.30;80.48;98706.28;5012408;28;20456;-78
2021/04/18 07:10:13;;;;;;;74.75;29.25;;;;;;;6.38;80.38;98699.50;5012240;28;20038;-78
2021/04/18 07:12:38;;;;;;;59.50;24.08;;;;;;;6.46;80.10;98703.66;5012429;28;20022;-78
2021/04/18 07:15:40;;;;;;;56.15;24.80;;;;;;;6.48;80.48;98702.28;5089335;27;20368;-78
2021/04/18 07:18:12;;;;;;;56.15;23.70;;;;;;;6.57;80.23;98705.34;5077943;28;20021;-79
2021/04/18 07:20:54;;;;;;;54.85;23.33;;;;;;;6.64;80.33;98702.41;5069336;28;20032;-79
2021/04/18 07:23:28;;;;;;;49.88;21.67;;;;;;;6.66;79.77;98706.47;5069213;28;20029;-78
2021/04/18 07:25:56;;;;;;;51.00;20.75;;;;;;;6.71;80.17;98702.97;5069343;28;20027;-78
2021/04/18 07:28:26;;;;;;;52.50;21.67;;;;;;;6.75;79.93;98712.25;5069445;28;20087;-79
2021/04/18 07:30:55;;;;;;;53.30;24.83;;;;;;;6.80;79.93;98706.03;5068952;28;20028;-78
2021/04/18 07:33:21;;;;;;;51.65;22.23;;;;;;;6.86;79.82;98707.69;5069908;28;20055;-78
2021/04/18 07:35:46;;;;;;;49.00;21.70;;;;;;;6.83;79.44;98705.50;5068974;28;20096;-78
2021/04/18 07:38:13;;;;;;;66.90;27.60;;;;;;;6.84;79.61;98713.38;5068952;28;20051;-78
2021/04/18 07:40:39;;;;;;;56.13;25.30;;;;;;;6.91;79.69;98715.06;5068715;28;20028;-78
2021/04/18 07:43:08;;;;;;;56.92;26.73;;;;;;;7.04;79.67;98711.84;5069122;28;20071;-78
2021/04/18 07:45:34;;;;;;;60.00;28.83;;;;;;;7.18;79.56;98708.59;5069064;28;20035;-78
2021/04/18 07:48:00;;;;;;;64.47;29.92;;;;;;;7.30;79.46;98709.19;5078058;28;20025;-78
2021/04/18 07:50:25;;;;;;;56.72;28.55;;;;;;;7.40;79.74;98711.97;5069004;28;20483;-78
2021/04/18 07:52:51;;;;;;;52.17;24.30;;;;;;;7.37;78.91;98715.22;5068642;28;20048;-79
2021/04/18 07:55:18;;;;;;;55.42;25.52;;;;;;;7.36;78.84;98710.03;5077061;28;20074;-77
2021/04/18 07:57:43;;;;;;;54.10;24.70;;;;;;;7.24;78.43;98718.44;5089205;28;20136;-78
2021/04/18 08:00:11;;;;;;;62.20;25.73;;;;;;;7.10;78.38;98710.78;5086155;28;20028;-79
2021/04/18 08:02:38;;;;;;;68.45;27.42;;;;;;;7.04;78.51;98708.28;5069675;28;20035;-79
2021/04/18 08:05:07;;;;;;;58.88;24.92;;;;;;;7.09;78.98;98709.16;5067419;28;20020;-78
2021/04/18 08:07:32;;;;;;;37.90;17.23;;;;;;;7.11;78.77;98706.13;5073426;28;20555;-79
2021/04/18 08:10:27;;;;;;;93.60;34.40;;;;;;;7.14;78.67;98709.13;5068364;28;20116;-79
2021/04/18 08:13:11;;;;;;;84.28;31.95;;;;;;;7.22;79.09;98715.16;5068022;28;20017;-79
2021/04/18 08:15:40;;;;;;;41.80;18.77;;;;;;;7.24;78.27;98718.44;5068624;28;20036;-79
2021/04/18 08:18:13;;;;;;;38.47;18.30;;;;;;;7.25;78.60;98717.38;5068509;28;20013;-79
2021/04/18 08:20:44;;;;;;;41.20;20.48;;;;;;;7.23;78.13;98712.19;5073843;28;20036;-80
2021/04/18 08:23:17;;;;;;;45.20;22.60;;;;;;;7.25;78.28;98709.19;5079519;28;20285;-78
2021/04/18 08:26:09;;;;;;;70.25;28.92;;;;;;;7.25;78.41;98712.75;5049884;28;20025;-78
2021/04/18 08:28:55;;;;;;;108.35;40.00;;;;;;;7.28;78.88;98706.75;5057653;28;20427;-79
2021/04/18 08:31:24;;;;;;;101.78;33.88;;;;;;;7.31;78.01;98713.56;5054594;28;20029;-79
2021/04/18 08:33:53;;;;;;;51.38;23.48;;;;;;;7.27;78.02;98716.03;5057882;28;20024;-78
2021/04/18 08:36:29;;;;;;;59.72;25.98;;;;;;;7.29;77.83;98710.28;5057904;28;20032;-76
2021/04/18 08:39:00;;;;;;;197.65;64.65;;;;;;;7.40;77.98;98711.97;5059430;28;20094;-79
2021/04/18 08:41:38;;;;;;;223.30;78.45;;;;;;;7.55;78.13;98713.91;5054373;28;20029;-80
2021/04/18 08:44:13;;;;;;;216.38;73.65;;;;;;;7.61;78.25;98703.81;5054650;28;20071;-79
2021/04/18 08:46:38;;;;;;;144.32;48.35;;;;;;;7.60;77.82;98704.91;5054407;28;20021;-77
2021/04/18 08:49:03;;;;;;;147.80;54.58;;;;;;;7.59;77.85;98703.25;5054346;28;20021;-76
2021/04/18 08:51:29;;;;;;;115.85;44.95;;;;;;;7.55;77.59;98704.88;5058124;28;20040;-79
2021/04/18 08:54:01;;;;;;;90.35;37.13;;;;;;;7.56;77.59;98698.34;5054093;28;20025;-79
2021/04/18 08:56:58;;;;;;;70.30;24.90;;;;;;;7.56;77.23;98704.63;5064822;28;20029;-78
2021/04/18 08:59:24;;;;;;;92.15;33.30;;;;;;;7.51;77.11;98709.25;5047404;28;20037;-78
2021/04/18 09:02:09;;;;;;;99.20;37.08;;;;;;;7.45;77.23;98706.53;5063606;28;20540;-77
2021/04/18 09:04:37;;;;;;;73.72;25.73;;;;;;;7.40;76.99;98701.06;5043029;28;20013;-79
2021/04/18 09:07:04;;;;;;;60.95;23.63;;;;;;;7.33;76.87;98700.47;5072867;28;20017;-80
2021/04/18 09:09:30;;;;;;;72.35;29.45;;;;;;;7.33;77.03;98705.94;5068691;28;20153;-78
2021/04/18 09:11:57;;;;;;;88.32;40.35;;;;;;;7.34;76.89;98709.47;5060351;28;20439;-79
2021/04/18 09:14:37;;;;;;;78.03;37.20;;;;;;;7.29;76.69;98710.28;5051425;28;20041;-80
2021/04/18 09:17:08;;;;;;;;;;;;;;;7.29;76.67;98715.75;5053252;28;20021;-81
2021/04/18 09:19:34;;;;;;;76.22;41.17;;;;;;;7.29;76.47;98704.84;5054199;28;19958;-80
2021/04/18 09:22:08;;;;;;;72.43;28.38;;;;;;;7.37;76.20;98720.69;5054159;28;20021;-81
2021/04/18 09:25:00;;;;;;;56.92;20.92;;;;;;;7.47;76.54;98716.34;5054200;28;20051;-80
2021/04/18 09:27:30;;;;;;;66.50;25.67;;;;;;;7.56;76.76;98711.97;5053389;28;20378;-79
2021/04/18 09:30:17;;;;;;;34.72;17.15;;;;;;;7.49;76.32;98709.53;5054023;28;20021;-79
2021/04/18 09:32:48;;;;;;;35.47;15.05;;;;;;;7.44;76.28;98710.34;5052921;28;20021;-78
2021/04/18 09:35:17;;;;;;;53.92;22.17;;;;;;;7.40;75.86;98716.59;5052434;28;21362;-77
2021/04/18 09:37:51;;;;;;;52.57;23.27;;;;;;;7.43;76.08;98710.59;5032723;28;20072;-79
2021/04/18 09:40:18;;;;;;;70.63;29.00;;;;;;;7.49;76.32;98706.78;5051826;28;20036;-78
2021/04/18 09:42:47;;;;;;;39.58;19.63;;;;;;;7.52;76.19;98711.72;5052157;28;20044;-76
2021/04/18 09:45:16;;;;;;;34.92;17.30;;;;;;;7.54;75.89;98709.53;5052559;28;20043;-79
2021/04/18 09:47:47;;;;;;;39.95;18.60;;;;;;;7.59;76.09;98708.72;5052251;28;20436;-78
2021/04/18 09:50:23;;;;;;;42.90;20.35;;;;;;;7.70;76.07;98713.09;5052299;28;20111;-80
2021/04/18 09:52:50;;;;;;;39.10;19.27;;;;;;;7.79;75.59;98709.84;5052971;28;20025;-79
2021/04/18 09:55:25;;;;;;;34.90;16.33;;;;;;;7.92;75.99;98709.31;5051519;28;20094;-79
2021/04/18 09:57:57;;;;;;;32.80;16.63;;;;;;;8.06;75.97;98701.41;5052840;28;20070;-80
2021/04/18 10:00:31;;;;;;;46.38;24.40;;;;;;;8.20;75.77;98709.84;5052359;28;20021;-79
2021/04/18 10:03:10;;;;;;;36.65;18.00;;;;;;;8.40;75.87;98695.34;5052189;28;20029;-79
2021/04/18 10:05:43;;;;;;;28.92;14.80;;;;;;;8.49;74.62;98707.38;5054826;28;20029;-80
2021/04/18 10:08:18;;;;;;;38.25;18.15;;;;;;;8.60;75.12;98704.59;5055289;28;20124;-79
2021/04/18 10:10:44;;;;;;;28.17;14.88;;;;;;;8.70;74.76;98707.31;5061583;28;20492;-79
2021/04/18 10:13:09;;;;;;;30.50;16.95;;;;;;;8.75;74.20;98706.50;5066867;28;20108;-79
2021/04/18 10:15:58;;;;;;;46.13;20.35;;;;;;;8.85;74.37;98702.91;5052574;28;20039;-79
2021/04/18 10:18:23;;;;;;;35.58;18.02;;;;;;;8.94;74.13;98704.78;5052277;28;20044;-79
2021/04/18 10:20:49;;;;;;;64.30;28.83;;;;;;;8.98;73.84;98705.03;5045138;28;20017;-79
2021/04/18 10:23:14;;;;;;;35.75;17.13;;;;;;;9.00;73.96;98708.31;5051259;28;20032;-80
2021/04/18 10:25:41;;;;;;;34.28;17.42;;;;;;;8.97;73.11;98708.06;5050841;28;20051;-79
2021/04/18 10:28:09;;;;;;;33.15;17.33;;;;;;;9.04;73.88;98705.84;5050331;28;20029;-80
2021/04/18 10:30:37;;;;;;;33.28;18.70;;;;;;;9.08;73.06;98696.00;5050508;28;20070;-79
2021/04/18 10:33:03;;;;;;;33.28;17.88;;;;;;;9.13;72.90;98697.88;5047562;28;20029;-79
2021/04/18 10:35:28;;;;;;;45.85;24.50;;;;;;;9.29;72.68;98704.91;5048477;28;20087;-79
2021/04/18 10:37:53;;;;;;;39.97;21.27;;;;;;;9.51;72.62;98699.06;5050011;28;20103;-80
2021/04/18 10:40:22;;;;;;;42.13;24.10;;;;;;;9.66;72.88;98703.59;5050646;28;20049;-80
2021/04/18 10:42:49;;;;;;;95.40;44.50;;;;;;;9.80;73.75;98709.25;5050429;28;20091;-80
2021/04/18 10:45:15;;;;;;;58.25;31.90;;;;;;;9.80;72.15;98694.72;5050436;28;20032;-80
2021/04/18 10:47:40;;;;;;;50.47;24.55;;;;;;;9.82;71.36;98703.47;5049669;28;20033;-79
2021/04/18 10:50:08;;;;;;;38.33;19.08;;;;;;;9.83;71.45;98692.25;5050222;28;20032;-79
2021/04/18 10:52:33;;;;;;;121.07;41.00;;;;;;;9.97;72.17;98695.16;5052206;28;20036;-80
2021/04/18 10:54:59;;;;;;;46.00;20.17;;;;;;;10.11;71.61;98686.28;5050034;28;20060;-79
2021/04/18 10:57:25;;;;;;;28.65;15.07;;;;;;;10.25;71.14;98689.16;5048493;28;20074;-80
2021/04/18 10:59:51;;;;;;;26.48;15.43;;;;;;;10.35;70.35;98685.50;5039924;28;20022;-81
2021/04/18 11:02:17;;;;;;;41.65;20.55;;;;;;;10.51;70.52;98694.41;5039521;28;20024;-81
2021/04/18 11:04:42;;;;;;;31.10;16.40;;;;;;;10.65;70.02;98692.63;5014773;28;20032;-81
2021/04/18 11:07:09;;;;;;;41.88;20.48;;;;;;;10.81;69.98;98687.78;5019584;28;20539;-77
2021/04/18 11:09:36;;;;;;;33.50;17.65;;;;;;;10.78;69.43;98682.09;5023576;28;20475;-79
2021/04/18 11:12:02;;;;;;;49.08;19.70;;;;;;;10.90;70.02;98687.16;5027200;28;20044;-77
2021/04/18 11:14:28;;;;;;;76.10;25.98;;;;;;;10.88;68.95;98687.44;5026121;28;20046;-77
2021/04/18 11:16:54;;;;;;;66.75;25.00;;;;;;;10.86;68.11;98685.00;5025841;28;20033;-77
2021/04/18 11:19:19;;;;;;;71.03;27.98;;;;;;;10.82;67.38;98680.38;5025414;28;20087;-77
2021/04/18 11:21:44;;;;;;;53.28;23.90;;;;;;;10.77;68.28;98680.44;5023720;28;20036;-78
2021/04/18 11:24:10;;;;;;;61.60;27.83;;;;;;;10.86;69.08;98678.66;5019373;28;20060;-77
2021/04/18 11:26:35;;;;;;;125.78;46.40;;;;;;;10.93;68.32;98681.09;5015315;28;20033;-77